sensor_id;sensor_type;location;lat;lon;timestamp;P1;durP1;ratioP1;P2;durP2;ratioP2
75356;SDS011;63946;51.986;5.930;2022-11-24T06:28:46;3.85;;;1.42;;
75356;SDS011;63946;51.986;5.930;2022-11-24T06:38:25;4.78;;;1.58;;
75356;SDS011;63946;51.986;5.930;2022-11-24T06:48:32;5.32;;;1.55;;
75356;SDS011;63946;51.986;5.930;2022-11-24T06:51:23;3.55;;;1.00;;
75356;SDS011;63946;51.986;5.930;2022-11-24T06:54:16;5.50;;;1.45;;
75356;SDS011;63946;51.986;5.930;2022-11-24T06:57:29;4.05;;;1.02;;
75356;SDS011;63946;51.986;5.930;2022-11-24T06:59:59;3.35;;;1.52;;
75356;SDS011;63946;51.986;5.930;2022-11-24T07:02:46;3.50;;;1.15;;
75356;SDS011;63946;51.986;5.930;2022-11-24T07:05:21;5.55;;;1.70;;
75356;SDS011;63946;51.986;5.930;2022-11-24T07:07:58;4.25;;;1.25;;
75356;SDS011;63946;51.986;5.930;2022-11-24T07:10:38;2.97;;;1.63;;
75356;SDS011;63946;51.986;5.930;2022-11-24T07:13:14;3.67;;;1.50;;
75356;SDS011;63946;51.986;5.930;2022-11-24T07:18:50;5.45;;;2.70;;
75356;SDS011;63946;51.986;5.930;2022-11-24T07:21:23;6.35;;;2.70;;
75356;SDS011;63946;51.986;5.930;2022-11-24T07:24:10;6.78;;;3.60;;
75356;SDS011;63946;51.986;5.930;2022-11-24T07:26:43;4.50;;;2.28;;
75356;SDS011;63946;51.986;5.930;2022-11-24T07:29:15;5.90;;;2.53;;
75356;SDS011;63946;51.986;5.930;2022-11-24T07:31:45;6.03;;;2.30;;
75356;SDS011;63946;51.986;5.930;2022-11-24T07:34:14;5.97;;;2.60;;
75356;SDS011;63946;51.986;5.930;2022-11-24T07:36:46;4.50;;;2.63;;
75356;SDS011;63946;51.986;5.930;2022-11-24T07:39:15;6.32;;;2.40;;
75356;SDS011;63946;51.986;5.930;2022-11-24T07:41:43;6.22;;;3.03;;
75356;SDS011;63946;51.986;5.930;2022-11-24T07:44:16;5.22;;;2.80;;
75356;SDS011;63946;51.986;5.930;2022-11-24T07:46:47;3.90;;;2.50;;
75356;SDS011;63946;51.986;5.930;2022-11-24T07:49:19;6.47;;;2.60;;
75356;SDS011;63946;51.986;5.930;2022-11-24T07:51:48;5.38;;;2.83;;
75356;SDS011;63946;51.986;5.930;2022-11-24T07:54:22;7.90;;;2.80;;
75356;SDS011;63946;51.986;5.930;2022-11-24T07:56:51;5.30;;;3.00;;
75356;SDS011;63946;51.986;5.930;2022-11-24T07:59:21;7.97;;;3.38;;
75356;SDS011;63946;51.986;5.930;2022-11-24T08:01:50;5.82;;;3.40;;
75356;SDS011;63946;51.986;5.930;2022-11-24T08:04:21;6.57;;;3.15;;
75356;SDS011;63946;51.986;5.930;2022-11-24T08:06:56;8.27;;;3.90;;
75356;SDS011;63946;51.986;5.930;2022-11-24T08:09:27;9.07;;;4.10;;
75356;SDS011;63946;51.986;5.930;2022-11-24T08:11:56;6.43;;;3.50;;
75356;SDS011;63946;51.986;5.930;2022-11-24T08:14:25;7.03;;;3.85;;
75356;SDS011;63946;51.986;5.930;2022-11-24T08:16:53;7.68;;;3.72;;
75356;SDS011;63946;51.986;5.930;2022-11-24T08:19:25;9.68;;;4.40;;
75356;SDS011;63946;51.986;5.930;2022-11-24T08:22:01;7.78;;;3.95;;
75356;SDS011;63946;51.986;5.930;2022-11-24T08:24:32;7.30;;;3.95;;
75356;SDS011;63946;51.986;5.930;2022-11-24T08:27:13;8.52;;;3.97;;
75356;SDS011;63946;51.986;5.930;2022-11-24T08:29:53;5.88;;;3.42;;
75356;SDS011;63946;51.986;5.930;2022-11-24T08:32:38;8.50;;;3.88;;
75356;SDS011;63946;51.986;5.930;2022-11-24T08:35:09;6.80;;;3.50;;
75356;SDS011;63946;51.986;5.930;2022-11-24T08:37:46;10.35;;;3.65;;
75356;SDS011;63946;51.986;5.930;2022-11-24T08:40:32;9.95;;;3.88;;
75356;SDS011;63946;51.986;5.930;2022-11-24T08:43:05;7.28;;;3.60;;
75356;SDS011;63946;51.986;5.930;2022-11-24T08:45:37;7.80;;;3.25;;
75356;SDS011;63946;51.986;5.930;2022-11-24T08:48:30;9.35;;;3.05;;
75356;SDS011;63946;51.986;5.930;2022-11-24T08:51:10;10.00;;;3.20;;
75356;SDS011;63946;51.986;5.930;2022-11-24T08:53:41;9.25;;;3.25;;
75356;SDS011;63946;51.986;5.930;2022-11-24T08:56:11;6.75;;;2.88;;
75356;SDS011;63946;51.986;5.930;2022-11-24T08:58:44;6.78;;;3.20;;
75356;SDS011;63946;51.986;5.930;2022-11-24T09:01:14;6.25;;;2.60;;
75356;SDS011;63946;51.986;5.930;2022-11-24T09:03:45;6.28;;;2.78;;
75356;SDS011;63946;51.986;5.930;2022-11-24T09:06:20;10.07;;;2.88;;
75356;SDS011;63946;51.986;5.930;2022-11-24T09:08:55;9.30;;;3.13;;
75356;SDS011;63946;51.986;5.930;2022-11-24T09:11:41;6.35;;;2.53;;
75356;SDS011;63946;51.986;5.930;2022-11-24T09:14:17;8.30;;;3.25;;
75356;SDS011;63946;51.986;5.930;2022-11-24T09:17:07;9.55;;;3.05;;
75356;SDS011;63946;51.986;5.930;2022-11-24T09:19:45;7.80;;;2.92;;
75356;SDS011;63946;51.986;5.930;2022-11-24T09:22:20;7.53;;;2.30;;
75356;SDS011;63946;51.986;5.930;2022-11-24T09:24:52;9.85;;;2.65;;
75356;SDS011;63946;51.986;5.930;2022-11-24T09:27:27;10.85;;;2.78;;
75356;SDS011;63946;51.986;5.930;2022-11-24T09:30:06;9.50;;;2.90;;
75356;SDS011;63946;51.986;5.930;2022-11-24T09:33:00;7.45;;;2.65;;
75356;SDS011;63946;51.986;5.930;2022-11-24T09:35:43;6.07;;;2.35;;
75356;SDS011;63946;51.986;5.930;2022-11-24T09:38:25;8.13;;;2.80;;
75356;SDS011;63946;51.986;5.930;2022-11-24T09:41:14;11.90;;;3.13;;
75356;SDS011;63946;51.986;5.930;2022-11-24T09:47:38;7.97;;;2.53;;
75356;SDS011;63946;51.986;5.930;2022-11-24T09:50:46;4.68;;;2.20;;
75356;SDS011;63946;51.986;5.930;2022-11-24T09:56:40;10.18;;;1.77;;
75356;SDS011;63946;51.986;5.930;2022-11-24T09:59:43;9.25;;;2.60;;
75356;SDS011;63946;51.986;5.930;2022-11-24T10:02:27;8.05;;;2.10;;
75356;SDS011;63946;51.986;5.930;2022-11-24T10:26:25;10.15;;;2.33;;
75356;SDS011;63946;51.986;5.930;2022-11-24T10:33:07;10.30;;;2.72;;
75356;SDS011;63946;51.986;5.930;2022-11-24T10:36:05;9.13;;;1.73;;
75356;SDS011;63946;51.986;5.930;2022-11-24T10:50:04;10.40;;;2.03;;
75356;SDS011;63946;51.986;5.930;2022-11-24T10:56:52;8.00;;;2.10;;
75356;SDS011;63946;51.986;5.930;2022-11-24T10:59:46;9.27;;;2.22;;
75356;SDS011;63946;51.986;5.930;2022-11-24T11:06:21;8.77;;;2.13;;
75356;SDS011;63946;51.986;5.930;2022-11-24T11:09:16;8.00;;;2.15;;
75356;SDS011;63946;51.986;5.930;2022-11-24T11:12:08;9.52;;;2.38;;
75356;SDS011;63946;51.986;5.930;2022-11-24T11:18:39;11.02;;;2.22;;
75356;SDS011;63946;51.986;5.930;2022-11-24T11:21:33;9.88;;;1.85;;
75356;SDS011;63946;51.986;5.930;2022-11-24T11:24:15;12.00;;;2.53;;
75356;SDS011;63946;51.986;5.930;2022-11-24T11:27:03;12.70;;;2.60;;
75356;SDS011;63946;51.986;5.930;2022-11-24T11:33:22;11.10;;;2.38;;
75356;SDS011;63946;51.986;5.930;2022-11-24T11:36:10;7.82;;;2.50;;
75356;SDS011;63946;51.986;5.930;2022-11-24T11:45:03;10.55;;;2.13;;
75356;SDS011;63946;51.986;5.930;2022-11-24T11:54:36;13.57;;;2.10;;
75356;SDS011;63946;51.986;5.930;2022-11-24T11:57:37;11.65;;;2.65;;
75356;SDS011;63946;51.986;5.930;2022-11-24T12:00:44;14.63;;;2.53;;
75356;SDS011;63946;51.986;5.930;2022-11-24T12:03:48;8.85;;;2.13;;
75356;SDS011;63946;51.986;5.930;2022-11-24T12:10:36;8.93;;;2.20;;
75356;SDS011;63946;51.986;5.930;2022-11-24T12:31:19;13.02;;;2.10;;
75356;SDS011;63946;51.986;5.930;2022-11-24T12:43:18;15.90;;;2.83;;
75356;SDS011;63946;51.986;5.930;2022-11-24T12:46:16;11.35;;;2.35;;
75356;SDS011;63946;51.986;5.930;2022-11-24T12:52:18;14.35;;;3.47;;
75356;SDS011;63946;51.986;5.930;2022-11-24T12:54:51;12.75;;;3.35;;
75356;SDS011;63946;51.986;5.930;2022-11-24T12:57:33;10.38;;;2.05;;
75356;SDS011;63946;51.986;5.930;2022-11-24T13:00:20;11.43;;;2.58;;
75356;SDS011;63946;51.986;5.930;2022-11-24T13:03:08;8.98;;;2.90;;
75356;SDS011;63946;51.986;5.930;2022-11-24T13:08:45;13.43;;;2.85;;
75356;SDS011;63946;51.986;5.930;2022-11-24T13:13:59;11.95;;;2.53;;
75356;SDS011;63946;51.986;5.930;2022-11-24T13:16:59;10.40;;;2.88;;
75356;SDS011;63946;51.986;5.930;2022-11-24T13:19:59;9.15;;;1.92;;
75356;SDS011;63946;51.986;5.930;2022-11-24T13:26:13;10.27;;;2.45;;
75356;SDS011;63946;51.986;5.930;2022-11-24T13:28:57;10.30;;;2.80;;
75356;SDS011;63946;51.986;5.930;2022-11-24T13:31:37;19.15;;;2.80;;
75356;SDS011;63946;51.986;5.930;2022-11-24T15:42:43;10.07;;;2.53;;
75356;SDS011;63946;51.986;5.930;2022-11-24T15:53:54;10.43;;;2.38;;
75356;SDS011;63946;51.986;5.930;2022-11-24T16:09:32;10.52;;;2.28;;
75356;SDS011;63946;51.986;5.930;2022-11-24T16:12:43;11.75;;;2.60;;
75356;SDS011;63946;51.986;5.930;2022-11-24T16:19:16;9.13;;;2.88;;
75356;SDS011;63946;51.986;5.930;2022-11-24T16:30:34;14.80;;;2.65;;
75356;SDS011;63946;51.986;5.930;2022-11-24T16:44:47;9.95;;;2.95;;
75356;SDS011;63946;51.986;5.930;2022-11-24T17:49:57;14.00;;;3.65;;
75356;SDS011;63946;51.986;5.930;2022-11-24T18:32:25;13.55;;;2.70;;
75356;SDS011;63946;51.986;5.930;2022-11-24T18:35:31;8.60;;;2.53;;
75356;SDS011;63946;51.986;5.930;2022-11-24T18:39:10;13.07;;;2.55;;
75356;SDS011;63946;51.986;5.930;2022-11-24T21:53:13;10.23;;;2.90;;
75356;SDS011;63946;51.986;5.930;2022-11-24T22:22:02;14.13;;;2.67;;
75356;SDS011;63946;51.986;5.930;2022-11-24T22:39:47;7.25;;;2.15;;
75356;SDS011;63946;51.986;5.930;2022-11-24T22:47:10;10.15;;;2.47;;
